Time;durP1;ratioP1;P1;durP2;ratioP2;P2;SDS_P1;SDS_P2;PMS_P1;PMS_P2;Temp;Humidity;BMP_temperature;BMP_pressure;BME280_temperature;BME280_humidity;BME280_pressure;Samples;Min_cycle;Max_cycle;Signal;HPM_P1;HPM_P2
2022/03/21 00:01:19;;;;;;;27.00;23.03;;;;;;;;;;5004939;28;20547;-84
2022/03/21 00:03:50;;;;;;;30.90;22.50;;;;;;;;;;5003529;28;20202;-85
2022/03/21 00:06:25;;;;;;;26.87;22.13;;;;;;;;;;5001437;28;20423;-85
2022/03/21 00:08:50;;;;;;;26.60;22.80;;;;;;;;;;5001586;28;20468;-84
2022/03/21 00:11:15;;;;;;;24.37;21.53;;;;;;;;;;5003491;28;20464;-83
2022/03/21 00:13:41;;;;;;;26.30;21.50;;;;;;;;;;5008420;28;20201;-84
2022/03/21 00:16:07;;;;;;;27.43;20.70;;;;;;;;;;5008228;28;20236;-84
2022/03/21 00:18:34;;;;;;;28.50;23.03;;;;;;;;;;5006007;28;20707;-84
2022/03/21 00:21:08;;;;;;;24.43;21.27;;;;;;;;;;5009245;28;20428;-84
2022/03/21 00:23:36;;;;;;;29.20;22.17;;;;;;;;;;5009148;28;20819;-83
2022/03/21 00:26:02;;;;;;;24.50;20.87;;;;;;;;;;5005715;28;20432;-85
2022/03/21 00:28:39;;;;;;;26.27;22.70;;;;;;;;;;5006267;28;20541;-84
2022/03/21 00:31:05;;;;;;;29.90;23.00;;;;;;;;;;5008364;28;20427;-84
2022/03/21 00:33:33;;;;;;;27.70;22.07;;;;;;;;;;5008806;28;20448;-84
2022/03/21 00:36:02;;;;;;;27.17;23.77;;;;;;;;;;5007576;28;20630;-83
2022/03/21 00:38:28;;;;;;;26.10;22.90;;;;;;;;;;5008334;28;20430;-84
2022/03/21 00:40:56;;;;;;;26.80;23.90;;;;;;;;;;5007760;28;20444;-84
2022/03/21 00:43:22;;;;;;;27.73;24.17;;;;;;;;;;5006304;28;20566;-84
2022/03/21 00:45:54;;;;;;;25.90;22.93;;;;;;;;;;5002651;28;20456;-85
2022/03/21 00:48:20;;;;;;;27.80;22.57;;;;;;;;;;5000922;28;20455;-83
2022/03/21 00:50:46;;;;;;;27.90;22.80;;;;;;;;;;5007553;28;20551;-84
2022/03/21 00:53:11;;;;;;;30.90;23.83;;;;;;;;;;5006833;28;20448;-82
2022/03/21 00:55:37;;;;;;;27.50;23.00;;;;;;;;;;5010368;28;20283;-84
2022/03/21 00:58:02;;;;;;;28.63;22.83;;;;;;;;;;5007045;28;20185;-82
2022/03/21 01:00:29;;;;;;;28.20;23.70;;;;;;;;;;5006842;28;20192;-84
2022/03/21 01:02:55;;;;;;;27.40;22.30;;;;;;;;;;5008243;28;20201;-84
2022/03/21 01:05:22;;;;;;;28.33;23.83;;;;;;;;;;5025522;28;20432;-83
2022/03/21 01:07:48;;;;;;;28.03;24.50;;;;;;;;;;5006604;28;21053;-83
2022/03/21 01:10:19;;;;;;;28.97;21.60;;;;;;;;;;5007591;28;20432;-80
2022/03/21 01:12:45;;;;;;;26.00;21.50;;;;;;;;;;5004653;28;20253;-85
2022/03/21 01:15:14;;;;;;;26.33;22.57;;;;;;;;;;5006939;28;20428;-82
2022/03/21 01:17:40;;;;;;;25.47;22.70;;;;;;;;;;5004856;28;21082;-83
2022/03/21 01:20:06;;;;;;;25.13;22.17;;;;;;;;;;5006572;28;20440;-83
2022/03/21 01:22:40;;;;;;;33.60;22.60;;;;;;;;;;5007399;28;20200;-81
2022/03/21 01:25:13;;;;;;;28.40;23.60;;;;;;;;;;5007606;28;20204;-83
2022/03/21 01:27:39;;;;;;;28.03;22.60;;;;;;;;;;5003522;28;20587;-82
2022/03/21 01:30:08;;;;;;;27.93;22.13;;;;;;;;;;5006971;28;20792;-82
2022/03/21 01:32:34;;;;;;;27.00;21.73;;;;;;;;;;5003454;28;20530;-83
2022/03/21 01:34:59;;;;;;;26.20;21.70;;;;;;;;;;5007375;28;20531;-83
2022/03/21 01:37:24;;;;;;;27.10;22.63;;;;;;;;;;5006067;28;20185;-84
2022/03/21 01:39:50;;;;;;;26.37;20.57;;;;;;;;;;5005037;28;20876;-84
2022/03/21 01:42:27;;;;;;;24.60;20.43;;;;;;;;;;5022376;22;20204;-74
2022/03/21 01:44:53;;;;;;;24.60;20.77;;;;;;;;;;4999215;28;20288;-73
2022/03/21 01:47:18;;;;;;;23.13;19.80;;;;;;;;;;4999831;28;20465;-73
2022/03/21 01:49:45;;;;;;;26.23;21.67;;;;;;;;;;5000558;28;20442;-73
2022/03/21 01:52:10;;;;;;;24.17;21.03;;;;;;;;;;5001787;28;20182;-73
2022/03/21 01:57:20;;;;;;;23.60;20.93;;;;;;;;;;4996411;28;20254;-72
2022/03/21 02:00:08;;;;;;;24.47;20.47;;;;;;;;;;4997826;28;20925;-73
2022/03/21 02:02:34;;;;;;;22.87;20.37;;;;;;;;;;4996639;28;20447;-73
2022/03/21 02:04:59;;;;;;;24.53;19.70;;;;;;;;;;5011499;28;20925;-72
2022/03/21 02:07:25;;;;;;;24.50;20.40;;;;;;;;;;4991535;28;20292;-73
2022/03/21 02:09:57;;;;;;;24.17;19.87;;;;;;;;;;4996689;28;20209;-72
2022/03/21 02:12:22;;;;;;;28.90;21.90;;;;;;;;;;4997139;28;20193;-74
2022/03/21 02:14:48;;;;;;;25.27;21.87;;;;;;;;;;4995982;28;20435;-74
2022/03/21 02:17:18;;;;;;;24.17;20.00;;;;;;;;;;4995343;28;20204;-75
2022/03/21 02:19:43;;;;;;;29.13;20.33;;;;;;;;;;4994999;28;20307;-72
2022/03/21 02:22:09;;;;;;;25.87;19.13;;;;;;;;;;4993840;28;20911;-72
2022/03/21 02:24:46;;;;;;;23.80;20.40;;;;;;;;;;4992690;28;20173;-72
2022/03/21 02:27:12;;;;;;;25.80;21.13;;;;;;;;;;5009223;28;20209;-73
2022/03/21 02:29:37;;;;;;;22.90;20.23;;;;;;;;;;4995466;28;20428;-74
2022/03/21 02:32:03;;;;;;;23.73;20.97;;;;;;;;;;4990066;28;20189;-74
2022/03/21 02:34:28;;;;;;;24.87;21.50;;;;;;;;;;4993196;28;20185;-73
2022/03/21 02:36:55;;;;;;;21.80;19.37;;;;;;;;;;4991897;28;20638;-73
2022/03/21 02:39:20;;;;;;;23.70;20.70;;;;;;;;;;4993059;28;20574;-73
2022/03/21 02:41:46;;;;;;;27.43;21.50;;;;;;;;;;4991414;28;20433;-74
2022/03/21 02:44:11;;;;;;;26.17;23.33;;;;;;;;;;4992368;28;20209;-73
2022/03/21 02:46:36;;;;;;;33.13;22.53;;;;;;;;;;4991128;28;20185;-72
2022/03/21 02:49:02;;;;;;;25.83;22.80;;;;;;;;;;4992017;28;20859;-72
2022/03/21 02:51:28;;;;;;;28.90;22.90;;;;;;;;;;4994250;28;20835;-71
2022/03/21 02:53:53;;;;;;;29.13;25.00;;;;;;;;;;4987338;28;20558;-73
2022/03/21 02:56:20;;;;;;;27.60;23.90;;;;;;;;;;4991387;28;20442;-72
2022/03/21 02:58:45;;;;;;;27.47;23.93;;;;;;;;;;4991869;28;20231;-73
2022/03/21 03:01:14;;;;;;;32.17;25.70;;;;;;;;;;4994638;28;20441;-73
2022/03/21 03:03:40;;;;;;;33.43;26.20;;;;;;;;;;4994713;28;20240;-73
2022/03/21 03:06:05;;;;;;;28.97;23.07;;;;;;;;;;4992526;28;20436;-73
2022/03/21 03:08:38;;;;;;;32.47;24.60;;;;;;;;;;4987566;28;20227;-74
2022/03/21 03:11:03;;;;;;;29.47;25.57;;;;;;;;;;4981972;28;20189;-73
2022/03/21 03:13:37;;;;;;;31.83;24.70;;;;;;;;;;4992179;28;20462;-72
2022/03/21 03:16:03;;;;;;;33.00;27.10;;;;;;;;;;5006682;28;20311;-74
2022/03/21 03:18:29;;;;;;;35.20;27.60;;;;;;;;;;4992173;28;20437;-73
2022/03/21 03:20:57;;;;;;;30.23;23.70;;;;;;;;;;4990980;28;20441;-73
2022/03/21 03:23:23;;;;;;;31.90;26.17;;;;;;;;;;5005775;28;20197;-75
2022/03/21 03:25:50;;;;;;;30.53;24.80;;;;;;;;;;4990569;28;20447;-73
2022/03/21 03:28:25;;;;;;;30.83;25.50;;;;;;;;;;4992500;28;21202;-74
2022/03/21 03:30:50;;;;;;;30.03;26.40;;;;;;;;;;4993608;28;20428;-75
2022/03/21 03:33:19;;;;;;;31.77;25.00;;;;;;;;;;4991446;28;20448;-74
2022/03/21 03:35:45;;;;;;;33.90;26.60;;;;;;;;;;4991468;28;20361;-75
2022/03/21 03:38:23;;;;;;;33.57;27.33;;;;;;;;;;4985752;28;20946;-75
2022/03/21 03:40:48;;;;;;;35.73;27.63;;;;;;;;;;4989476;28;20185;-74
2022/03/21 03:43:23;;;;;;;29.87;25.10;;;;;;;;;;4991083;28;20937;-74
2022/03/21 03:45:52;;;;;;;33.70;26.70;;;;;;;;;;4991021;28;20181;-73
2022/03/21 03:48:18;;;;;;;35.40;26.37;;;;;;;;;;4994117;28;20465;-73
2022/03/21 03:50:44;;;;;;;36.50;27.30;;;;;;;;;;4993540;28;20428;-75
2022/03/21 03:53:09;;;;;;;35.10;26.40;;;;;;;;;;4994704;28;20816;-75
2022/03/21 03:55:34;;;;;;;32.10;26.60;;;;;;;;;;4995111;28;20182;-73
2022/03/21 03:58:07;;;;;;;29.77;25.53;;;;;;;;;;4997561;28;20182;-73
2022/03/21 04:00:32;;;;;;;30.73;26.07;;;;;;;;;;4995992;28;20176;-74
2022/03/21 04:05:47;;;;;;;32.00;27.30;;;;;;;;;;4995455;28;20200;-74
2022/03/21 04:08:12;;;;;;;35.63;28.00;;;;;;;;;;4996639;28;20540;-74
2022/03/21 04:10:38;;;;;;;33.53;26.27;;;;;;;;;;4993395;28;20958;-74
2022/03/21 04:13:03;;;;;;;33.10;27.50;;;;;;;;;;4995323;28;20189;-74
2022/03/21 04:15:28;;;;;;;30.87;25.60;;;;;;;;;;4997064;28;20178;-74
2022/03/21 04:17:57;;;;;;;34.40;26.67;;;;;;;;;;4994014;28;20194;-73
2022/03/21 04:20:23;;;;;;;33.17;26.03;;;;;;;;;;4998187;28;20541;-77
2022/03/21 04:22:48;;;;;;;32.60;26.43;;;;;;;;;;4994678;28;20452;-74
2022/03/21 04:25:14;;;;;;;34.40;27.70;;;;;;;;;;4997413;28;20176;-75
2022/03/21 04:27:39;;;;;;;30.07;24.60;;;;;;;;;;4995136;28;20204;-73
2022/03/21 04:30:05;;;;;;;29.87;25.13;;;;;;;;;;4997321;28;20188;-73
2022/03/21 04:32:33;;;;;;;31.30;25.67;;;;;;;;;;4996880;28;20186;-73
2022/03/21 04:34:59;;;;;;;30.07;24.27;;;;;;;;;;4995110;28;20940;-74
2022/03/21 04:37:27;;;;;;;29.87;23.67;;;;;;;;;;4997266;28;20420;-74
2022/03/21 04:39:55;;;;;;;26.50;22.97;;;;;;;;;;4994933;28;20253;-76
2022/03/21 04:42:24;;;;;;;27.00;22.10;;;;;;;;;;4995854;28;20943;-72
2022/03/21 04:44:58;;;;;;;26.57;23.37;;;;;;;;;;4995836;28;20821;-74
2022/03/21 04:47:23;;;;;;;30.63;23.80;;;;;;;;;;4996390;28;20460;-74
2022/03/21 04:49:49;;;;;;;28.30;22.90;;;;;;;;;;4997115;28;20588;-73
2022/03/21 04:52:14;;;;;;;28.93;22.53;;;;;;;;;;4996857;28;20217;-73
2022/03/21 04:54:39;;;;;;;26.07;22.20;;;;;;;;;;4997209;28;21201;-75
2022/03/21 04:57:06;;;;;;;29.27;24.10;;;;;;;;;;4993986;28;20208;-75
2022/03/21 04:59:32;;;;;;;28.67;21.90;;;;;;;;;;4992569;28;20597;-74
2022/03/21 05:01:57;;;;;;;27.67;22.33;;;;;;;;;;4996934;28;20420;-74
2022/03/21 05:04:22;;;;;;;24.00;20.30;;;;;;;;;;4992337;28;20205;-74
2022/03/21 05:06:48;;;;;;;22.80;19.40;;;;;;;;;;4991769;28;20236;-74
2022/03/21 05:09:13;;;;;;;26.70;19.87;;;;;;;;;;4996313;28;20177;-75
2022/03/21 05:11:41;;;;;;;27.50;22.90;;;;;;;;;;5012434;28;20181;-74
2022/03/21 05:14:06;;;;;;;27.33;20.63;;;;;;;;;;4999625;28;20205;-74
2022/03/21 05:16:32;;;;;;;27.17;22.23;;;;;;;;;;4996267;28;20490;-74
2022/03/21 05:18:57;;;;;;;26.23;21.73;;;;;;;;;;4994992;28;20664;-75
2022/03/21 05:21:23;;;;;;;23.50;19.23;;;;;;;;;;5002423;28;20182;-74
2022/03/21 05:32:03;;;;;;;24.30;19.83;;;;;;;;;;4992329;28;20473;-73
2022/03/21 05:37:45;;;;;;;27.30;21.60;;;;;;;;;;4993830;28;20464;-74
2022/03/21 05:42:55;;;;;;;25.13;21.00;;;;;;;;;;4991490;28;20472;-74
2022/03/21 05:45:20;;;;;;;22.63;19.27;;;;;;;;;;4982309;28;20475;-73
2022/03/21 05:50:36;;;;;;;22.17;18.40;;;;;;;;;;4989407;28;20836;-74
2022/03/21 05:53:02;;;;;;;25.13;21.43;;;;;;;;;;4985392;28;20447;-75
2022/03/21 05:55:29;;;;;;;23.20;20.63;;;;;;;;;;4992996;28;20179;-74
2022/03/21 05:58:00;;;;;;;25.40;21.90;;;;;;;;;;4983758;28;20432;-79
2022/03/21 06:00:40;;;;;;;24.20;20.13;;;;;;;;;;4972397;28;20441;-78
2022/03/21 06:03:08;;;;;;;26.60;21.53;;;;;;;;;;4992989;28;20532;-75
2022/03/21 06:05:37;;;;;;;27.03;21.77;;;;;;;;;;4983358;28;20437;-74
2022/03/21 06:10:45;;;;;;;25.90;20.77;;;;;;;;;;5613206;22;20617;-83
2022/03/21 06:13:11;;;;;;;25.80;21.70;;;;;;;;;;4989356;28;20485;-85
2022/03/21 06:16:22;;;;;;;26.17;19.40;;;;;;;;;;4999840;28;20922;-84
2022/03/21 06:19:18;;;;;;;25.53;20.20;;;;;;;;;;4991657;28;21145;-84
2022/03/21 06:21:49;;;;;;;24.10;20.47;;;;;;;;;;4989014;28;20459;-84
2022/03/21 06:24:18;;;;;;;25.07;20.80;;;;;;;;;;4997797;28;21682;-85
2022/03/21 06:26:44;;;;;;;25.83;19.90;;;;;;;;;;5010876;28;20436;-83
2022/03/21 06:29:10;;;;;;;27.17;21.50;;;;;;;;;;5000956;28;21852;-84
2022/03/21 06:31:35;;;;;;;26.03;20.57;;;;;;;;;;5000874;28;20448;-85
2022/03/21 06:34:00;;;;;;;23.07;19.67;;;;;;;;;;5003998;28;20243;-83
2022/03/21 06:36:26;;;;;;;22.77;19.57;;;;;;;;;;4999411;28;20183;-84
2022/03/21 06:38:51;;;;;;;23.77;19.23;;;;;;;;;;5002435;28;21078;-85
2022/03/21 06:41:17;;;;;;;25.20;20.07;;;;;;;;;;5000497;28;20301;-83
2022/03/21 06:43:42;;;;;;;24.63;19.27;;;;;;;;;;5002196;28;20284;-85
2022/03/21 06:46:10;;;;;;;22.80;19.50;;;;;;;;;;5003163;28;20173;-84
2022/03/21 06:48:35;;;;;;;24.87;20.00;;;;;;;;;;5003613;28;20223;-85
2022/03/21 06:51:12;;;;;;;26.97;20.30;;;;;;;;;;5000821;28;21361;-85
2022/03/21 06:54:01;;;;;;;21.73;19.10;;;;;;;;;;5002866;28;20164;-83
2022/03/21 06:56:35;;;;;;;26.63;21.67;;;;;;;;;;5001465;28;20834;-79
2022/03/21 06:59:00;;;;;;;26.00;21.30;;;;;;;;;;5015579;22;20510;-76
2022/03/21 07:01:26;;;;;;;28.53;21.90;;;;;;;;;;5014949;28;20433;-74
2022/03/21 07:03:51;;;;;;;29.60;23.80;;;;;;;;;;5017938;28;20683;-75
2022/03/21 07:06:17;;;;;;;28.40;23.30;;;;;;;;;;5019333;28;20188;-75
2022/03/21 07:08:43;;;;;;;30.23;23.93;;;;;;;;;;5018016;28;20257;-76
2022/03/21 07:11:12;;;;;;;31.37;25.17;;;;;;;;;;5019504;28;20494;-75
2022/03/21 07:13:37;;;;;;;30.43;24.73;;;;;;;;;;5016637;28;20815;-75
2022/03/21 07:16:03;;;;;;;30.07;23.90;;;;;;;;;;5016174;28;20419;-74
2022/03/21 07:18:28;;;;;;;28.47;22.70;;;;;;;;;;5017272;28;20303;-75
2022/03/21 07:21:05;;;;;;;29.20;23.80;;;;;;;;;;5016283;28;20199;-75
2022/03/21 07:23:30;;;;;;;28.80;23.80;;;;;;;;;;5014822;28;20180;-75
2022/03/21 07:25:55;;;;;;;25.90;22.53;;;;;;;;;;5014499;28;20487;-75
2022/03/21 07:28:21;;;;;;;29.13;23.70;;;;;;;;;;5018204;28;20200;-76
2022/03/21 07:30:46;;;;;;;31.90;23.87;;;;;;;;;;5018597;28;20202;-75
2022/03/21 07:33:12;;;;;;;26.53;23.17;;;;;;;;;;5015268;28;20207;-75
2022/03/21 07:35:42;;;;;;;29.80;22.60;;;;;;;;;;5015067;28;20511;-75
2022/03/21 07:40:50;;;;;;;29.67;23.50;;;;;;;;;;5475542;22;20541;-77
2022/03/21 07:43:17;;;;;;;28.77;23.77;;;;;;;;;;4979273;28;20526;-75
2022/03/21 07:48:27;;;;;;;27.60;23.60;;;;;;;;;;4993403;28;20469;-76
2022/03/21 07:50:53;;;;;;;30.10;24.37;;;;;;;;;;4986497;28;20917;-77
2022/03/21 07:56:00;;;;;;;27.53;21.90;;;;;;;;;;4983058;28;20218;-70
2022/03/21 07:58:28;;;;;;;27.20;21.50;;;;;;;;;;4993151;28;20431;-70
2022/03/21 08:00:56;;;;;;;26.40;23.07;;;;;;;;;;5010683;28;20460;-70
2022/03/21 08:03:22;;;;;;;25.57;20.50;;;;;;;;;;4991330;28;20444;-70
2022/03/21 08:05:47;;;;;;;24.43;20.33;;;;;;;;;;4974404;28;20439;-70
2022/03/21 08:08:12;;;;;;;23.87;21.13;;;;;;;;;;4973909;28;20473;-71
2022/03/21 08:10:53;;;;;;;26.60;20.67;;;;;;;;;;4977623;28;20621;-70
2022/03/21 08:13:19;;;;;;;23.40;18.23;;;;;;;;;;4971036;28;21053;-71
2022/03/21 08:15:52;;;;;;;25.33;18.10;;;;;;;;;;4974269;28;20519;-71
2022/03/21 08:18:18;;;;;;;24.47;19.50;;;;;;;;;;4980466;28;20834;-71
2022/03/21 08:21:06;;;;;;;24.60;18.37;;;;;;;;;;4975725;28;20437;-71
2022/03/21 08:23:58;;;;;;;23.57;17.70;;;;;;;;;;4969605;28;20344;-71
2022/03/21 08:26:23;;;;;;;22.93;16.77;;;;;;;;;;4979813;28;20440;-71
2022/03/21 08:28:59;;;;;;;18.47;15.73;;;;;;;;;;4979398;28;20473;-71
2022/03/21 08:31:25;;;;;;;22.93;17.17;;;;;;;;;;4970689;28;20181;-71
2022/03/21 08:33:51;;;;;;;20.70;16.67;;;;;;;;;;4964981;28;20463;-71
2022/03/21 08:36:16;;;;;;;20.10;15.60;;;;;;;;;;4965516;28;20441;-71
2022/03/21 08:38:41;;;;;;;18.70;14.30;;;;;;;;;;4972372;28;20217;-71
2022/03/21 08:41:06;;;;;;;20.47;15.43;;;;;;;;;;4974185;28;20186;-71
2022/03/21 08:43:32;;;;;;;17.60;14.50;;;;;;;;;;4969460;28;20202;-71
2022/03/21 08:46:08;;;;;;;18.13;13.93;;;;;;;;;;4976175;28;20316;-71
2022/03/21 08:51:18;;;;;;;17.00;14.13;;;;;;;;;;4977841;28;20448;-71
2022/03/21 08:53:47;;;;;;;19.10;13.50;;;;;;;;;;4977285;28;20887;-71
2022/03/21 08:56:12;;;;;;;18.10;13.70;;;;;;;;;;4981688;28;20473;-71
2022/03/21 08:58:40;;;;;;;19.57;13.63;;;;;;;;;;4979680;28;20523;-71
2022/03/21 09:01:05;;;;;;;16.80;12.20;;;;;;;;;;4966198;28;20186;-72
2022/03/21 09:03:39;;;;;;;16.50;13.00;;;;;;;;;;4972344;28;20872;-72
2022/03/21 09:06:07;;;;;;;15.40;11.97;;;;;;;;;;4976452;28;20188;-71
2022/03/21 09:08:34;;;;;;;16.63;12.70;;;;;;;;;;4992908;28;20523;-71
2022/03/21 09:10:59;;;;;;;15.57;11.50;;;;;;;;;;4972547;28;20437;-71
2022/03/21 09:13:24;;;;;;;17.77;14.23;;;;;;;;;;4977645;28;20448;-72
2022/03/21 09:15:50;;;;;;;16.47;11.83;;;;;;;;;;4982619;28;20185;-72
2022/03/21 09:18:15;;;;;;;15.23;11.53;;;;;;;;;;4980255;28;20181;-71
2022/03/21 09:20:40;;;;;;;16.00;12.57;;;;;;;;;;4980299;28;20186;-72
2022/03/21 09:23:05;;;;;;;17.40;13.53;;;;;;;;;;4978649;28;20185;-72
2022/03/21 09:25:34;;;;;;;15.07;12.50;;;;;;;;;;4968692;28;20399;-72
2022/03/21 09:27:59;;;;;;;19.70;11.80;;;;;;;;;;4977832;28;20364;-72
2022/03/21 09:30:28;;;;;;;12.50;10.57;;;;;;;;;;4974973;28;20479;-72
2022/03/21 09:32:53;;;;;;;16.20;12.90;;;;;;;;;;4966277;28;20201;-72
2022/03/21 09:35:30;;;;;;;13.00;11.00;;;;;;;;;;4973733;28;20457;-72
2022/03/21 09:37:55;;;;;;;17.30;12.23;;;;;;;;;;4978790;28;20585;-69
2022/03/21 09:40:21;;;;;;;13.67;10.90;;;;;;;;;;4965522;28;20695;-69
2022/03/21 09:42:51;;;;;;;15.97;12.70;;;;;;;;;;4968457;28;20192;-70
2022/03/21 09:45:16;;;;;;;18.70;13.00;;;;;;;;;;4975528;28;20201;-69
2022/03/21 09:50:36;;;;;;;15.20;12.20;;;;;;;;;;4975052;28;20189;-70
2022/03/21 09:53:05;;;;;;;20.63;14.60;;;;;;;;;;4975926;28;20428;-69
2022/03/21 09:55:30;;;;;;;16.23;13.03;;;;;;;;;;4979007;28;20875;-69
2022/03/21 09:57:56;;;;;;;19.80;14.00;;;;;;;;;;4974809;28;20532;-69
2022/03/21 10:00:21;;;;;;;17.70;13.60;;;;;;;;;;4972909;28;20185;-69
2022/03/21 10:02:47;;;;;;;16.80;13.33;;;;;;;;;;4976052;28;20848;-69
2022/03/21 10:08:22;;;;;;;17.23;13.53;;;;;;;;;;4962744;28;20469;-69
2022/03/21 10:11:06;;;;;;;16.77;12.37;;;;;;;;;;4977589;28;20432;-69
2022/03/21 10:13:45;;;;;;;14.83;12.00;;;;;;;;;;4974556;28;21261;-69
2022/03/21 10:16:18;;;;;;;18.60;12.77;;;;;;;;;;4975072;28;20424;-69
2022/03/21 10:19:14;;;;;;;18.10;13.40;;;;;;;;;;4979169;28;20584;-69
2022/03/21 10:21:39;;;;;;;17.60;13.23;;;;;;;;;;4976198;28;20456;-69
2022/03/21 10:24:18;;;;;;;15.93;11.40;;;;;;;;;;4980089;28;20457;-69
2022/03/21 10:26:54;;;;;;;16.40;12.57;;;;;;;;;;4976757;28;20197;-69
2022/03/21 10:29:19;;;;;;;20.90;13.77;;;;;;;;;;4976111;28;20811;-69
2022/03/21 10:31:46;;;;;;;16.00;12.60;;;;;;;;;;4972230;28;20441;-70
2022/03/21 10:34:16;;;;;;;12.90;10.90;;;;;;;;;;4978688;28;20247;-70
2022/03/21 10:37:00;;;;;;;18.53;13.10;;;;;;;;;;4978706;28;21019;-69
2022/03/21 10:39:25;;;;;;;18.80;13.50;;;;;;;;;;4980125;28;20504;-70
2022/03/21 10:41:55;;;;;;;16.07;12.40;;;;;;;;;;4978921;28;20448;-70
2022/03/21 10:44:20;;;;;;;16.23;11.80;;;;;;;;;;4977500;28;20213;-70
2022/03/21 10:46:50;;;;;;;17.70;14.30;;;;;;;;;;4976285;28;20463;-70
2022/03/21 10:49:25;;;;;;;14.30;11.60;;;;;;;;;;4979762;28;20196;-70
2022/03/21 10:51:51;;;;;;;18.27;13.93;;;;;;;;;;4978628;28;20432;-70
2022/03/21 10:54:36;;;;;;;22.03;15.67;;;;;;;;;;4971746;28;20460;-69
2022/03/21 10:57:02;;;;;;;16.83;12.97;;;;;;;;;;4990171;28;20435;-70
2022/03/21 10:59:27;;;;;;;16.83;12.50;;;;;;;;;;4976139;28;20872;-70
2022/03/21 11:02:28;;;;;;;18.57;14.20;;;;;;;;;;4979450;28;20451;-69
2022/03/21 11:04:53;;;;;;;18.63;13.20;;;;;;;;;;4914942;29;20730;-71
2022/03/21 11:07:19;;;;;;;24.23;15.70;;;;;;;;;;4958319;28;20472;-69
2022/03/21 11:09:44;;;;;;;19.27;15.30;;;;;;;;;;4977193;28;20192;-70
2022/03/21 11:12:10;;;;;;;20.37;14.93;;;;;;;;;;4974795;28;20836;-72
2022/03/21 11:14:39;;;;;;;20.00;14.57;;;;;;;;;;4979999;28;20740;-73
2022/03/21 11:17:07;;;;;;;18.43;13.23;;;;;;;;;;4976713;28;20955;-72
2022/03/21 11:19:36;;;;;;;19.13;12.77;;;;;;;;;;4979844;28;20543;-72
2022/03/21 11:22:01;;;;;;;14.30;12.43;;;;;;;;;;4975093;28;20429;-72
2022/03/21 11:24:31;;;;;;;14.60;13.00;;;;;;;;;;4976881;28;21734;-72
2022/03/21 11:27:09;;;;;;;16.20;13.77;;;;;;;;;;4988422;28;20208;-72
2022/03/21 11:29:59;;;;;;;14.77;12.83;;;;;;;;;;4975806;28;20432;-72
2022/03/21 11:32:54;;;;;;;14.70;12.50;;;;;;;;;;4978340;28;20486;-72
2022/03/21 11:35:28;;;;;;;16.83;12.87;;;;;;;;;;4964271;28;20472;-72
2022/03/21 11:37:55;;;;;;;17.53;13.00;;;;;;;;;;4979088;28;20987;-72
2022/03/21 11:40:23;;;;;;;20.30;15.93;;;;;;;;;;4976909;28;20891;-72
2022/03/21 11:42:49;;;;;;;15.97;13.77;;;;;;;;;;4974106;28;20444;-72
2022/03/21 11:45:24;;;;;;;16.90;13.07;;;;;;;;;;4977098;28;20544;-71
2022/03/21 11:47:50;;;;;;;15.90;12.63;;;;;;;;;;4972566;28;20475;-72
2022/03/21 11:50:25;;;;;;;18.50;13.27;;;;;;;;;;4976059;28;20816;-71
2022/03/21 11:53:09;;;;;;;16.60;13.67;;;;;;;;;;4977150;28;20185;-71
2022/03/21 11:55:37;;;;;;;17.80;14.77;;;;;;;;;;4976110;28;20520;-71
2022/03/21 11:58:47;;;;;;;18.00;13.80;;;;;;;;;;4969716;28;20476;-71
2022/03/21 12:01:24;;;;;;;18.67;13.67;;;;;;;;;;4976887;28;20433;-71
2022/03/21 12:03:50;;;;;;;17.70;14.17;;;;;;;;;;4969711;28;20460;-71
2022/03/21 12:06:23;;;;;;;19.63;13.20;;;;;;;;;;4965877;28;20430;-71
2022/03/21 12:08:48;;;;;;;17.90;14.77;;;;;;;;;;4973556;28;20240;-71
2022/03/21 12:11:50;;;;;;;22.53;15.77;;;;;;;;;;4972665;28;20528;-70
2022/03/21 12:14:25;;;;;;;19.43;15.40;;;;;;;;;;4919242;29;20214;-72
2022/03/21 12:17:05;;;;;;;21.23;16.13;;;;;;;;;;4955057;28;20436;-72
2022/03/21 12:19:54;;;;;;;22.60;17.10;;;;;;;;;;4977107;28;20512;-71
2022/03/21 12:22:29;;;;;;;20.03;15.50;;;;;;;;;;4981433;28;20433;-70
2022/03/21 12:24:57;;;;;;;17.10;14.50;;;;;;;;;;4978974;28;20458;-71
2022/03/21 12:27:51;;;;;;;20.03;14.97;;;;;;;;;;4979928;28;20472;-71
2022/03/21 12:32:54;;;;;;;18.40;14.40;;;;;;;;;;4978702;28;20897;-72
2022/03/21 12:35:32;;;;;;;17.97;14.10;;;;;;;;;;4975482;28;20536;-71
2022/03/21 12:38:25;;;;;;;15.70;12.47;;;;;;;;;;4979899;28;20437;-71
2022/03/21 12:40:53;;;;;;;15.93;13.57;;;;;;;;;;4978400;28;20483;-72
2022/03/21 12:43:32;;;;;;;19.93;16.23;;;;;;;;;;4975362;28;20472;-72
2022/03/21 12:46:06;;;;;;;24.13;18.63;;;;;;;;;;4975515;28;21404;-70
2022/03/21 12:48:34;;;;;;;16.13;13.37;;;;;;;;;;4974298;28;21934;-70
2022/03/21 12:50:59;;;;;;;22.03;14.43;;;;;;;;;;4980648;28;20944;-70
2022/03/21 12:53:34;;;;;;;16.90;14.30;;;;;;;;;;4976360;28;20440;-72
2022/03/21 12:56:00;;;;;;;17.70;15.20;;;;;;;;;;4969209;28;20181;-71
2022/03/21 13:01:14;;;;;;;18.63;13.07;;;;;;;;;;4959750;28;21119;-72
2022/03/21 13:03:45;;;;;;;16.90;12.90;;;;;;;;;;4980475;28;20494;-72
2022/03/21 13:11:35;;;;;;;15.90;13.87;;;;;;;;;;4978793;28;20432;-74
2022/03/21 13:14:02;;;;;;;18.30;14.33;;;;;;;;;;4979204;28;20506;-74
2022/03/21 13:16:28;;;;;;;16.50;13.07;;;;;;;;;;4977541;28;20433;-74
2022/03/21 13:18:54;;;;;;;18.00;15.00;;;;;;;;;;4980445;28;20525;-74
2022/03/21 13:21:26;;;;;;;14.87;12.40;;;;;;;;;;4981299;28;20572;-73
2022/03/21 13:23:52;;;;;;;21.97;15.80;;;;;;;;;;4981499;28;20447;-73
2022/03/21 13:26:49;;;;;;;22.90;16.60;;;;;;;;;;4980667;28;20432;-73
2022/03/21 13:29:15;;;;;;;20.33;15.83;;;;;;;;;;4938229;28;20519;-72
2022/03/21 13:31:41;;;;;;;17.30;13.60;;;;;;;;;;4978878;28;20539;-72
2022/03/21 13:34:08;;;;;;;15.13;12.17;;;;;;;;;;4979807;28;20194;-73
2022/03/21 13:36:40;;;;;;;15.50;13.20;;;;;;;;;;4979399;28;20613;-72
2022/03/21 13:39:07;;;;;;;17.23;13.70;;;;;;;;;;4976304;28;20442;-75
2022/03/21 13:41:32;;;;;;;17.80;14.40;;;;;;;;;;4971069;28;20441;-75
2022/03/21 13:44:01;;;;;;;18.33;14.10;;;;;;;;;;4978450;28;20468;-74
2022/03/21 13:46:29;;;;;;;19.23;14.20;;;;;;;;;;4976346;28;20205;-74
2022/03/21 13:48:55;;;;;;;17.77;13.47;;;;;;;;;;4979835;28;20519;-74
2022/03/21 13:51:21;;;;;;;19.07;13.87;;;;;;;;;;4977723;28;20425;-75
2022/03/21 13:53:47;;;;;;;16.43;13.43;;;;;;;;;;4979555;28;20209;-75
2022/03/21 13:56:13;;;;;;;19.90;13.87;;;;;;;;;;4973960;28;20483;-74
2022/03/21 13:58:39;;;;;;;16.60;12.50;;;;;;;;;;4977026;28;20543;-74
2022/03/21 14:01:26;;;;;;;17.70;13.63;;;;;;;;;;4975282;28;20443;-74
2022/03/21 14:03:53;;;;;;;18.60;14.13;;;;;;;;;;4976144;28;20206;-74
2022/03/21 14:06:18;;;;;;;16.90;14.07;;;;;;;;;;4977191;28;20900;-73
2022/03/21 14:09:05;;;;;;;18.03;14.40;;;;;;;;;;4975342;28;20464;-74
2022/03/21 14:11:30;;;;;;;17.27;14.60;;;;;;;;;;4975833;28;20248;-74
2022/03/21 14:14:00;;;;;;;16.50;12.40;;;;;;;;;;4968728;28;21709;-73
2022/03/21 14:16:26;;;;;;;17.13;13.60;;;;;;;;;;4972046;28;20444;-73
2022/03/21 14:18:51;;;;;;;18.80;13.77;;;;;;;;;;4978721;28;20605;-73
2022/03/21 14:21:16;;;;;;;16.13;12.33;;;;;;;;;;4973811;28;20942;-72
2022/03/21 14:23:41;;;;;;;18.90;14.70;;;;;;;;;;4976538;28;20208;-73
2022/03/21 14:28:51;;;;;;;15.57;12.70;;;;;;;;;;4976444;28;20215;-74
2022/03/21 14:31:16;;;;;;;19.60;15.03;;;;;;;;;;4975264;28;20708;-77
2022/03/21 14:33:41;;;;;;;15.47;13.73;;;;;;;;;;4978323;28;20201;-76
2022/03/21 14:36:07;;;;;;;16.37;14.43;;;;;;;;;;4976413;28;20177;-78
2022/03/21 14:38:36;;;;;;;14.93;13.43;;;;;;;;;;4979090;28;20189;-80
2022/03/21 14:41:01;;;;;;;16.70;14.10;;;;;;;;;;4968399;28;25118;-75
2022/03/21 14:43:27;;;;;;;16.67;13.73;;;;;;;;;;4977348;28;21291;-76
2022/03/21 14:46:01;;;;;;;17.40;14.77;;;;;;;;;;4977610;28;20204;-72
2022/03/21 14:49:08;;;;;;;17.83;15.33;;;;;;;;;;4977965;28;20500;-69
2022/03/21 14:51:35;;;;;;;18.93;15.40;;;;;;;;;;4972966;28;20425;-73
2022/03/21 14:54:01;;;;;;;18.33;14.47;;;;;;;;;;4939925;28;1118851;-70
2022/03/21 14:56:27;;;;;;;15.70;13.40;;;;;;;;;;4971675;28;20642;-71
2022/03/21 14:58:56;;;;;;;20.70;14.73;;;;;;;;;;4972281;28;20199;-71
2022/03/21 15:01:21;;;;;;;19.57;14.60;;;;;;;;;;4966522;28;20447;-71
2022/03/21 15:03:47;;;;;;;21.67;14.90;;;;;;;;;;4975454;28;20855;-71
2022/03/21 15:06:12;;;;;;;22.83;17.30;;;;;;;;;;4970107;28;20196;-72
2022/03/21 15:08:37;;;;;;;17.43;15.07;;;;;;;;;;4970728;28;20201;-72
2022/03/21 15:11:02;;;;;;;20.50;15.33;;;;;;;;;;4974701;28;20247;-71
2022/03/21 15:13:28;;;;;;;24.30;16.10;;;;;;;;;;4966097;28;20281;-70
2022/03/21 15:16:19;;;;;;;19.40;16.30;;;;;;;;;;4973221;28;20904;-70
2022/03/21 15:18:56;;;;;;;16.47;14.77;;;;;;;;;;4972333;28;20288;-70
2022/03/21 15:21:22;;;;;;;21.00;16.30;;;;;;;;;;4972454;28;20440;-70
2022/03/21 15:23:48;;;;;;;18.03;15.57;;;;;;;;;;4974691;28;20445;-71